AUA60XF LDZA-LOWW
Flight info
| Callsign | AUA60XF |
|---|---|
| Flight time | 0h 39m |
| Altitude | 22000 |
| Route | OBUTI OBUTI2W |
| Aircraft | E195/M-SDE3GILORVW/S |
Departure
| Time | 2026-05-04 17:14 |
|---|---|
| Airport | Zagreb Franjo Tuđman International Airport (LDZA) |
Arrival
| Time | 2026-05-04 17:53 |
|---|---|
| Airport | Vienna International Airport (LOWW) |
| Time | Latitude | Longitude | Altitude | Speed | Heading |
|---|---|---|---|---|---|
| 2026-05-04 16:55 | 45.74210 | 16.07870 | 360 ft | 0 kts | 136° |
| 2026-05-04 17:05 | 45.74216 | 16.07861 | 361 ft | 2 kts | 136° |
| 2026-05-04 17:06 | 45.74238 | 16.07832 | 361 ft | 2 kts | 136° |
| 2026-05-04 17:06 | 45.74248 | 16.07817 | 361 ft | 1 kts | 136° |
| 2026-05-04 17:07 | 45.74259 | 16.07786 | 361 ft | 2 kts | 89° |
| 2026-05-04 17:07 | 45.74258 | 16.07772 | 361 ft | 2 kts | 69° |
| 2026-05-04 17:07 | 45.74250 | 16.07755 | 361 ft | 0 kts | 46° |
| 2026-05-04 17:09 | 45.74263 | 16.07774 | 361 ft | 6 kts | 45° |
| 2026-05-04 17:10 | 45.74400 | 16.07885 | 361 ft | 14 kts | 320° |
| 2026-05-04 17:10 | 45.74645 | 16.07805 | 361 ft | 15 kts | 46° |
| 2026-05-04 17:11 | 45.74717 | 16.07915 | 361 ft | 15 kts | 47° |
| 2026-05-04 17:11 | 45.74790 | 16.08027 | 361 ft | 13 kts | 47° |
| 2026-05-04 17:11 | 45.74893 | 16.08021 | 361 ft | 6 kts | 316° |
| 2026-05-04 17:12 | 45.74927 | 16.07976 | 361 ft | 6 kts | 318° |
| 2026-05-04 17:12 | 45.74960 | 16.07889 | 361 ft | 3 kts | 222° |
| 2026-05-04 17:13 | 45.74137 | 16.06647 | 431 ft | 177 kts | 225° |
| 2026-05-04 17:14 | 45.71612 | 16.02991 | 2563 ft | 142 kts | 224° |
| 2026-05-04 17:14 | 45.70930 | 16.02001 | 2491 ft | 136 kts | 223° |
| 2026-05-04 17:14 | 45.70711 | 15.99178 | 3495 ft | 183 kts | 303° |
| 2026-05-04 17:15 | 45.71910 | 15.98072 | 3760 ft | 231 kts | 347° |
| 2026-05-04 17:15 | 45.75181 | 15.99330 | 5217 ft | 267 kts | 20° |
| 2026-05-04 17:16 | 45.78988 | 15.99944 | 6893 ft | 288 kts | 344° |
| 2026-05-04 17:16 | 45.84972 | 15.98976 | 9907 ft | 299 kts | 354° |
| 2026-05-04 17:17 | 45.87045 | 15.98790 | 10765 ft | 305 kts | 355° |
| 2026-05-04 17:17 | 45.93541 | 15.98264 | 13344 ft | 319 kts | 355° |
| 2026-05-04 17:18 | 45.95763 | 15.98088 | 14205 ft | 322 kts | 355° |
| 2026-05-04 17:18 | 46.00191 | 15.99493 | 15186 ft | 352 kts | 26° |
| 2026-05-04 17:19 | 46.04601 | 16.02681 | 16743 ft | 360 kts | 26° |
| 2026-05-04 17:19 | 46.09365 | 16.05085 | 18055 ft | 369 kts | 357° |
| 2026-05-04 17:20 | 46.14308 | 16.03795 | 19675 ft | 367 kts | 355° |
| 2026-05-04 17:20 | 46.19439 | 16.03652 | 21055 ft | 372 kts | 358° |
| 2026-05-04 17:20 | 46.22051 | 16.03641 | 21686 ft | 375 kts | 358° |
| 2026-05-04 17:21 | 46.27266 | 16.03635 | 22015 ft | 392 kts | 358° |
| 2026-05-04 17:21 | 46.32840 | 16.03634 | 21996 ft | 404 kts | 358° |
| 2026-05-04 17:22 | 46.35675 | 16.03634 | 21996 ft | 404 kts | 358° |
| 2026-05-04 17:22 | 46.38477 | 16.03633 | 21992 ft | 404 kts | 358° |
| 2026-05-04 17:23 | 46.46873 | 16.03631 | 21992 ft | 403 kts | 358° |
| 2026-05-04 17:23 | 46.49572 | 16.03631 | 21993 ft | 404 kts | 358° |
| 2026-05-04 17:23 | 46.55092 | 16.03629 | 21992 ft | 403 kts | 358° |
| 2026-05-04 17:24 | 46.57976 | 16.03629 | 21993 ft | 403 kts | 358° |
| 2026-05-04 17:24 | 46.66379 | 16.03627 | 21993 ft | 404 kts | 358° |
| 2026-05-04 17:25 | 46.69178 | 16.03626 | 21993 ft | 404 kts | 358° |
| 2026-05-04 17:25 | 46.74836 | 16.03625 | 21993 ft | 404 kts | 358° |
| 2026-05-04 17:26 | 46.80475 | 16.03624 | 21991 ft | 404 kts | 358° |
| 2026-05-04 17:26 | 46.88931 | 16.03622 | 21988 ft | 405 kts | 358° |
| 2026-05-04 17:27 | 46.94555 | 16.03621 | 21988 ft | 405 kts | 358° |
| 2026-05-04 17:27 | 47.00221 | 16.03619 | 21988 ft | 406 kts | 358° |
| 2026-05-04 17:28 | 47.05820 | 16.04277 | 21926 ft | 409 kts | 18° |
| 2026-05-04 17:29 | 47.14160 | 16.05376 | 22023 ft | 406 kts | 355° |
| 2026-05-04 17:29 | 47.22684 | 16.04746 | 21937 ft | 404 kts | 355° |
| 2026-05-04 17:30 | 47.31324 | 16.04156 | 21988 ft | 411 kts | 355° |
| 2026-05-04 17:31 | 47.37089 | 16.03763 | 22031 ft | 411 kts | 355° |
| 2026-05-04 17:31 | 47.45609 | 16.03180 | 21972 ft | 403 kts | 355° |
| 2026-05-04 17:32 | 47.51221 | 16.02795 | 21598 ft | 398 kts | 355° |
| 2026-05-04 17:33 | 47.59288 | 16.02239 | 20545 ft | 388 kts | 355° |
| 2026-05-04 17:33 | 47.61912 | 16.02059 | 20201 ft | 387 kts | 355° |
| 2026-05-04 17:34 | 47.70007 | 16.01499 | 19134 ft | 383 kts | 355° |
| 2026-05-04 17:34 | 47.72680 | 16.01314 | 18780 ft | 381 kts | 355° |
| 2026-05-04 17:35 | 47.80647 | 16.00761 | 17716 ft | 377 kts | 355° |
| 2026-05-04 17:35 | 47.85915 | 16.00395 | 17007 ft | 374 kts | 355° |
| 2026-05-04 17:35 | 47.88524 | 16.00213 | 16654 ft | 373 kts | 355° |
| 2026-05-04 17:36 | 47.91231 | 16.00022 | 16370 ft | 405 kts | 355° |
| 2026-05-04 17:36 | 47.94100 | 15.99823 | 16181 ft | 408 kts | 355° |
| 2026-05-04 17:36 | 47.96892 | 15.99629 | 15890 ft | 396 kts | 355° |
| 2026-05-04 17:36 | 47.99642 | 15.99437 | 15047 ft | 398 kts | 355° |
| 2026-05-04 17:37 | 48.02438 | 15.99240 | 13714 ft | 401 kts | 355° |
| 2026-05-04 17:37 | 48.05208 | 15.99046 | 12514 ft | 407 kts | 355° |
| 2026-05-04 17:37 | 48.08031 | 15.98848 | 11743 ft | 391 kts | 356° |
| 2026-05-04 17:37 | 48.10686 | 15.98662 | 11430 ft | 369 kts | 356° |
| 2026-05-04 17:38 | 48.13145 | 15.98491 | 11498 ft | 335 kts | 356° |
| 2026-05-04 17:38 | 48.15337 | 15.98029 | 11447 ft | 304 kts | 336° |
| 2026-05-04 17:38 | 48.17227 | 15.97021 | 11527 ft | 278 kts | 343° |
| 2026-05-04 17:38 | 48.19091 | 15.96331 | 11528 ft | 267 kts | 343° |
| 2026-05-04 17:39 | 48.22715 | 15.95773 | 11546 ft | 277 kts | 20° |
| 2026-05-04 17:39 | 48.24342 | 15.97538 | 11533 ft | 295 kts | 52° |
| 2026-05-04 17:39 | 48.25198 | 16.00310 | 10925 ft | 292 kts | 82° |
| 2026-05-04 17:40 | 48.25499 | 16.03282 | 10288 ft | 290 kts | 84° |
| 2026-05-04 17:40 | 48.25783 | 16.06291 | 9591 ft | 289 kts | 84° |
| 2026-05-04 17:40 | 48.26049 | 16.09164 | 9673 ft | 260 kts | 84° |
| 2026-05-04 17:40 | 48.26306 | 16.11943 | 9624 ft | 278 kts | 84° |
| 2026-05-04 17:41 | 48.26550 | 16.14822 | 9691 ft | 277 kts | 89° |
| 2026-05-04 17:41 | 48.26107 | 16.17524 | 9653 ft | 265 kts | 126° |
| 2026-05-04 17:41 | 48.24784 | 16.19393 | 9717 ft | 264 kts | 145° |
| 2026-05-04 17:41 | 48.23320 | 16.21079 | 9614 ft | 263 kts | 144° |
| 2026-05-04 17:42 | 48.21846 | 16.22781 | 9452 ft | 264 kts | 144° |
| 2026-05-04 17:42 | 48.20383 | 16.24466 | 8968 ft | 277 kts | 144° |
| 2026-05-04 17:42 | 48.18714 | 16.25961 | 8127 ft | 286 kts | 163° |
| 2026-05-04 17:42 | 48.16736 | 16.25985 | 7460 ft | 286 kts | 196° |
| 2026-05-04 17:43 | 48.15104 | 16.24412 | 6936 ft | 279 kts | 228° |
| 2026-05-04 17:43 | 48.14324 | 16.21779 | 6423 ft | 282 kts | 260° |
| 2026-05-04 17:43 | 48.14592 | 16.18891 | 5907 ft | 287 kts | 291° |
| 2026-05-04 17:43 | 48.15473 | 16.16238 | 5640 ft | 278 kts | 294° |
| 2026-05-04 17:44 | 48.16335 | 16.13673 | 5348 ft | 270 kts | 294° |
| 2026-05-04 17:44 | 48.17166 | 16.11192 | 5095 ft | 262 kts | 294° |
| 2026-05-04 17:44 | 48.17969 | 16.08799 | 5096 ft | 255 kts | 294° |
| 2026-05-04 17:44 | 48.18765 | 16.06434 | 5094 ft | 255 kts | 295° |
| 2026-05-04 17:45 | 48.19960 | 16.04466 | 5077 ft | 261 kts | 330° |
| 2026-05-04 17:45 | 48.21719 | 16.03922 | 5116 ft | 263 kts | 7° |
| 2026-05-04 17:45 | 48.23365 | 16.05030 | 5108 ft | 259 kts | 45° |
| 2026-05-04 17:45 | 48.24223 | 16.07317 | 5109 ft | 252 kts | 83° |
| 2026-05-04 17:46 | 48.24252 | 16.09940 | 5134 ft | 251 kts | 95° |
| 2026-05-04 17:46 | 48.24190 | 16.12545 | 5093 ft | 250 kts | 94° |
| 2026-05-04 17:46 | 48.24106 | 16.15177 | 5094 ft | 249 kts | 96° |
| 2026-05-04 17:46 | 48.24005 | 16.17773 | 5083 ft | 248 kts | 104° |
| 2026-05-04 17:47 | 48.23257 | 16.20078 | 5150 ft | 243 kts | 124° |
| 2026-05-04 17:47 | 48.22428 | 16.22257 | 5180 ft | 234 kts | 120° |
| 2026-05-04 17:47 | 48.21699 | 16.24367 | 4915 ft | 224 kts | 119° |
| 2026-05-04 17:47 | 48.21013 | 16.26431 | 4634 ft | 215 kts | 118° |
| 2026-05-04 17:48 | 48.20359 | 16.28433 | 4351 ft | 210 kts | 118° |
| 2026-05-04 17:48 | 48.19733 | 16.30364 | 4105 ft | 203 kts | 118° |
| 2026-05-04 17:48 | 48.19121 | 16.32258 | 3810 ft | 196 kts | 118° |
| 2026-05-04 17:48 | 48.18541 | 16.34052 | 3509 ft | 184 kts | 118° |
| 2026-05-04 17:49 | 48.18015 | 16.35680 | 3247 ft | 169 kts | 118° |
| 2026-05-04 17:49 | 48.17518 | 16.37219 | 3054 ft | 160 kts | 118° |
| 2026-05-04 17:49 | 48.17048 | 16.38668 | 2851 ft | 153 kts | 118° |
| 2026-05-04 17:49 | 48.16587 | 16.40090 | 2630 ft | 150 kts | 118° |
| 2026-05-04 17:50 | 48.16133 | 16.41491 | 2422 ft | 149 kts | 118° |
| 2026-05-04 17:50 | 48.15677 | 16.42899 | 2206 ft | 149 kts | 118° |
| 2026-05-04 17:50 | 48.15224 | 16.44294 | 1996 ft | 148 kts | 117° |
| 2026-05-04 17:50 | 48.14778 | 16.45666 | 1789 ft | 146 kts | 117° |
| 2026-05-04 17:51 | 48.14332 | 16.47042 | 1583 ft | 146 kts | 117° |
| 2026-05-04 17:51 | 48.13888 | 16.48406 | 1383 ft | 145 kts | 117° |
| 2026-05-04 17:51 | 48.13458 | 16.49733 | 1162 ft | 140 kts | 117° |
| 2026-05-04 17:51 | 48.13079 | 16.51015 | 882 ft | 127 kts | 115° |
| 2026-05-04 17:52 | 48.12692 | 16.52155 | 740 ft | 120 kts | 118° |
| 2026-05-04 17:52 | 48.12313 | 16.53272 | 654 ft | 119 kts | 119° |
| 2026-05-04 17:52 | 48.11960 | 16.54329 | 608 ft | 103 kts | 116° |
| 2026-05-04 17:52 | 48.11692 | 16.55141 | 608 ft | 81 kts | 115° |
| 2026-05-04 17:53 | 48.11479 | 16.55796 | 608 ft | 61 kts | 114° |
| 2026-05-04 17:53 | 48.11302 | 16.56342 | 608 ft | 54 kts | 115° |
| 2026-05-04 17:53 | 48.11163 | 16.56766 | 608 ft | 38 kts | 116° |
| 2026-05-04 17:53 | 48.11080 | 16.57037 | 608 ft | 16 kts | 103° |
| 2026-05-04 17:54 | 48.11118 | 16.57180 | 608 ft | 12 kts | 39° |
| 2026-05-04 17:54 | 48.11127 | 16.57190 | 608 ft | 0 kts | 31° |
| 2026-05-04 17:55 | 48.11131 | 16.57193 | 608 ft | 3 kts | 27° |
| 2026-05-04 17:55 | 48.11173 | 16.57223 | 608 ft | 10 kts | 26° |
| 2026-05-04 17:55 | 48.11258 | 16.57285 | 608 ft | 17 kts | 24° |
| 2026-05-04 17:55 | 48.11379 | 16.57375 | 608 ft | 20 kts | 24° |
| 2026-05-04 17:56 | 48.11494 | 16.57464 | 608 ft | 7 kts | 24° |
| 2026-05-04 17:56 | 48.11543 | 16.57470 | 608 ft | 8 kts | 340° |
| 2026-05-04 17:56 | 48.11612 | 16.57430 | 608 ft | 13 kts | 339° |
| 2026-05-04 17:56 | 48.11716 | 16.57382 | 608 ft | 17 kts | 345° |
| 2026-05-04 17:57 | 48.11823 | 16.57300 | 608 ft | 17 kts | 302° |
| 2026-05-04 17:57 | 48.11860 | 16.57127 | 608 ft | 17 kts | 290° |
| 2026-05-04 17:57 | 48.11911 | 16.56965 | 608 ft | 8 kts | 296° |
| 2026-05-04 17:57 | 48.11918 | 16.56932 | 608 ft | 3 kts | 264° |
| 2026-05-04 17:58 | 48.11895 | 16.56899 | 608 ft | 5 kts | 205° |
| 2026-05-04 17:58 | 48.11867 | 16.56879 | 608 ft | 3 kts | 205° |
| 2026-05-04 17:58 | 48.11863 | 16.56877 | 608 ft | 0 kts | 206° |